Time;durP1;ratioP1;P1;durP2;ratioP2;P2;SDS_P1;SDS_P2;PMS_P1;PMS_P2;Temp;Humidity;BMP_temperature;BMP_pressure;BME280_temperature;BME280_humidity;BME280_pressure;Samples;Min_cycle;Max_cycle;Signal;HPM_P1;HPM_P2
2022/12/19 00:01:03;;;;;;;7.37;5.00;;;;;;;;;;5133056;27;20208;-76
2022/12/19 00:03:32;;;;;;;10.87;4.90;;;;;;;;;;5133537;27;20227;-76
2022/12/19 00:06:01;;;;;;;7.30;4.83;;;;;;;;;;5133326;27;20249;-76
2022/12/19 00:08:29;;;;;;;7.47;4.67;;;;;;;;;;5133984;27;20231;-76
2022/12/19 00:10:57;;;;;;;5.87;4.50;;;;;;;;;;5132200;27;20197;-76
2022/12/19 00:13:24;;;;;;;5.50;4.27;;;;;;;;;;5133137;27;20626;-76
2022/12/19 00:15:51;;;;;;;6.87;4.30;;;;;;;;;;5132921;27;20197;-76
2022/12/19 00:18:19;;;;;;;6.13;4.50;;;;;;;;;;5133427;27;20253;-76
2022/12/19 00:20:54;;;;;;;5.93;4.83;;;;;;;;;;5133473;27;20236;-76
2022/12/19 00:23:21;;;;;;;5.63;4.53;;;;;;;;;;5112918;28;20677;-76
2022/12/19 00:25:48;;;;;;;5.80;4.57;;;;;;;;;;5122463;27;20451;-76
2022/12/19 00:28:16;;;;;;;7.33;4.57;;;;;;;;;;5132434;27;20277;-76
2022/12/19 00:30:43;;;;;;;6.73;4.90;;;;;;;;;;5132969;27;20604;-76
2022/12/19 00:33:10;;;;;;;6.40;4.80;;;;;;;;;;5132676;27;20193;-77
2022/12/19 00:35:38;;;;;;;5.90;4.43;;;;;;;;;;5132448;27;20220;-76
2022/12/19 00:38:06;;;;;;;6.13;4.83;;;;;;;;;;5132273;27;20235;-76
2022/12/19 00:40:34;;;;;;;8.23;5.00;;;;;;;;;;5132133;27;20193;-76
2022/12/19 00:43:01;;;;;;;6.30;4.73;;;;;;;;;;5132130;27;20236;-76
2022/12/19 00:45:28;;;;;;;7.23;4.97;;;;;;;;;;5132627;27;20196;-76
2022/12/19 00:47:55;;;;;;;6.33;5.00;;;;;;;;;;5132731;27;20248;-76
2022/12/19 00:50:22;;;;;;;7.03;5.27;;;;;;;;;;5132047;27;20253;-76
2022/12/19 00:52:50;;;;;;;6.47;5.10;;;;;;;;;;5133468;28;20250;-76
2022/12/19 00:55:18;;;;;;;9.07;5.17;;;;;;;;;;5131542;28;20228;-76
2022/12/19 00:57:45;;;;;;;6.20;4.80;;;;;;;;;;5133338;28;20228;-76
2022/12/19 01:00:13;;;;;;;6.53;5.30;;;;;;;;;;5132474;28;20201;-77
2022/12/19 01:02:40;;;;;;;7.77;4.97;;;;;;;;;;5130209;28;20609;-76
2022/12/19 01:05:08;;;;;;;7.17;5.60;;;;;;;;;;5125712;28;20229;-76
2022/12/19 01:07:35;;;;;;;6.80;5.10;;;;;;;;;;5133353;27;20635;-76
2022/12/19 01:10:03;;;;;;;8.83;5.13;;;;;;;;;;5136050;27;20201;-76
2022/12/19 01:12:46;;;;;;;6.80;5.03;;;;;;;;;;5136003;27;20217;-76
2022/12/19 01:15:13;;;;;;;9.23;5.60;;;;;;;;;;5136538;27;20257;-76
2022/12/19 01:17:40;;;;;;;8.37;5.40;;;;;;;;;;5135649;27;20257;-76
2022/12/19 01:20:09;;;;;;;8.73;4.90;;;;;;;;;;5132524;27;20246;-76
2022/12/19 01:22:36;;;;;;;8.83;5.60;;;;;;;;;;5135719;27;20652;-76
2022/12/19 01:25:03;;;;;;;9.27;5.03;;;;;;;;;;5135965;27;20224;-77
2022/12/19 01:27:32;;;;;;;8.87;5.37;;;;;;;;;;5136081;27;20244;-76
2022/12/19 01:29:59;;;;;;;8.90;5.13;;;;;;;;;;5135625;27;20281;-76
2022/12/19 01:32:26;;;;;;;6.80;5.03;;;;;;;;;;5135768;27;20220;-76
2022/12/19 01:34:54;;;;;;;7.93;5.00;;;;;;;;;;5135805;27;20228;-76
2022/12/19 01:37:21;;;;;;;9.07;5.60;;;;;;;;;;5135783;27;20687;-76
2022/12/19 01:39:48;;;;;;;6.60;5.10;;;;;;;;;;5134356;27;20193;-76
2022/12/19 01:42:16;;;;;;;6.40;5.07;;;;;;;;;;5130524;27;20229;-76
2022/12/19 01:45:03;;;;;;;6.50;5.03;;;;;;;;;;5135303;27;20258;-76
2022/12/19 01:47:30;;;;;;;9.60;5.40;;;;;;;;;;5135160;27;20262;-76
2022/12/19 01:49:57;;;;;;;7.73;4.77;;;;;;;;;;5135295;27;20273;-76
2022/12/19 01:52:27;;;;;;;7.90;4.70;;;;;;;;;;5135653;27;20744;-76
2022/12/19 01:54:55;;;;;;;6.73;4.83;;;;;;;;;;5127569;27;20636;-76
2022/12/19 01:57:22;;;;;;;7.37;5.23;;;;;;;;;;5135327;27;20275;-76
2022/12/19 01:59:51;;;;;;;8.30;5.77;;;;;;;;;;5132303;27;20210;-76
2022/12/19 02:02:23;;;;;;;5.90;4.30;;;;;;;;;;5132595;27;20254;-77
2022/12/19 02:04:51;;;;;;;8.10;5.10;;;;;;;;;;5134518;28;20193;-76
2022/12/19 02:07:19;;;;;;;7.70;5.47;;;;;;;;;;5128834;28;20226;-76
2022/12/19 02:09:47;;;;;;;7.00;4.80;;;;;;;;;;5128707;28;20660;-76
2022/12/19 02:12:14;;;;;;;6.97;4.93;;;;;;;;;;5133625;28;20240;-76
2022/12/19 02:14:42;;;;;;;8.20;4.90;;;;;;;;;;5133880;28;20229;-77
2022/12/19 02:17:14;;;;;;;7.40;4.97;;;;;;;;;;5133472;28;20196;-76
2022/12/19 02:19:57;;;;;;;6.73;4.53;;;;;;;;;;5133928;27;20672;-77
2022/12/19 02:22:26;;;;;;;7.20;5.13;;;;;;;;;;5132065;28;20671;-76
2022/12/19 02:25:08;;;;;;;7.73;5.20;;;;;;;;;;5134138;28;20201;-76
2022/12/19 02:27:49;;;;;;;8.23;4.90;;;;;;;;;;5125178;28;20200;-76
2022/12/19 02:30:18;;;;;;;7.63;5.50;;;;;;;;;;5133403;28;20273;-76
2022/12/19 02:32:49;;;;;;;10.13;5.80;;;;;;;;;;5131340;28;20258;-77
2022/12/19 02:35:20;;;;;;;8.33;5.40;;;;;;;;;;5133862;28;20193;-79
2022/12/19 02:37:49;;;;;;;7.40;5.40;;;;;;;;;;5130310;28;20192;-79
2022/12/19 02:40:18;;;;;;;8.00;5.60;;;;;;;;;;5132799;28;20302;-79
2022/12/19 02:42:47;;;;;;;6.97;5.67;;;;;;;;;;5133570;28;20243;-79
2022/12/19 02:45:16;;;;;;;9.07;5.30;;;;;;;;;;5128803;28;20672;-78
2022/12/19 02:47:44;;;;;;;5.53;4.80;;;;;;;;;;5133698;28;20201;-79
2022/12/19 02:50:13;;;;;;;7.13;5.53;;;;;;;;;;5132556;28;20205;-79
2022/12/19 02:52:45;;;;;;;8.70;5.73;;;;;;;;;;5133206;28;20336;-79
2022/12/19 02:55:15;;;;;;;7.53;5.30;;;;;;;;;;5132780;28;20236;-79
2022/12/19 02:57:46;;;;;;;8.63;5.40;;;;;;;;;;5132573;28;20226;-79
2022/12/19 03:00:16;;;;;;;8.67;5.77;;;;;;;;;;5132708;28;20665;-79
2022/12/19 03:02:47;;;;;;;6.37;5.17;;;;;;;;;;5090311;27;1221983;-78
2022/12/19 03:05:19;;;;;;;8.07;5.20;;;;;;;;;;5132749;27;20664;-79
2022/12/19 03:07:50;;;;;;;8.83;5.17;;;;;;;;;;5132748;27;20988;-79
2022/12/19 03:10:19;;;;;;;6.00;4.90;;;;;;;;;;5132997;27;20327;-79
2022/12/19 03:12:50;;;;;;;7.40;5.40;;;;;;;;;;5134460;27;20737;-79
2022/12/19 03:15:17;;;;;;;7.40;5.57;;;;;;;;;;5132183;27;20205;-79
2022/12/19 03:17:44;;;;;;;8.77;5.10;;;;;;;;;;5134173;27;20614;-79
2022/12/19 03:20:19;;;;;;;6.20;5.13;;;;;;;;;;5133555;27;20235;-79
2022/12/19 03:22:48;;;;;;;7.70;4.90;;;;;;;;;;5134191;27;20228;-78
2022/12/19 03:25:15;;;;;;;7.73;5.50;;;;;;;;;;5132248;27;20197;-79
2022/12/19 03:27:42;;;;;;;6.53;5.10;;;;;;;;;;5133969;27;20231;-79
2022/12/19 03:30:11;;;;;;;9.37;5.00;;;;;;;;;;5132465;27;20308;-79
2022/12/19 03:32:40;;;;;;;6.03;4.70;;;;;;;;;;5134263;27;20224;-78
2022/12/19 03:35:09;;;;;;;6.23;5.47;;;;;;;;;;5133417;27;20197;-78
2022/12/19 03:37:39;;;;;;;6.90;5.33;;;;;;;;;;5133113;27;20661;-79
2022/12/19 03:40:09;;;;;;;7.87;5.33;;;;;;;;;;5133680;27;20189;-78
2022/12/19 03:45:27;;;;;;;7.17;4.93;;;;;;;;;;5133914;27;20195;-80
2022/12/19 03:47:57;;;;;;;6.07;5.00;;;;;;;;;;5133697;27;20220;-80
2022/12/19 03:50:25;;;;;;;7.97;5.30;;;;;;;;;;5131938;27;20818;-80
2022/12/19 03:52:56;;;;;;;6.50;4.63;;;;;;;;;;5132586;27;20196;-80
2022/12/19 03:55:29;;;;;;;6.20;5.03;;;;;;;;;;5132961;27;20221;-80
2022/12/19 03:58:02;;;;;;;6.40;4.50;;;;;;;;;;5133070;27;20196;-80
2022/12/19 04:00:30;;;;;;;8.13;4.80;;;;;;;;;;5133002;27;20255;-80
2022/12/19 04:02:58;;;;;;;6.43;4.83;;;;;;;;;;5132980;27;20221;-80
2022/12/19 04:05:27;;;;;;;7.37;4.63;;;;;;;;;;5132730;27;20197;-80
2022/12/19 04:07:56;;;;;;;7.40;5.00;;;;;;;;;;5125168;27;20680;-80
2022/12/19 04:10:25;;;;;;;7.23;4.77;;;;;;;;;;5133175;27;20227;-80
2022/12/19 04:12:55;;;;;;;6.40;5.00;;;;;;;;;;5128181;27;20687;-80
2022/12/19 04:15:24;;;;;;;6.30;4.40;;;;;;;;;;5132660;27;20729;-80
2022/12/19 04:17:53;;;;;;;6.73;4.93;;;;;;;;;;5132254;27;20193;-80
2022/12/19 04:20:22;;;;;;;6.53;4.73;;;;;;;;;;5129570;27;20232;-77
2022/12/19 04:22:51;;;;;;;7.03;4.60;;;;;;;;;;5122582;27;20200;-77
2022/12/19 04:25:20;;;;;;;6.27;4.80;;;;;;;;;;5132266;27;20232;-77
2022/12/19 04:27:51;;;;;;;8.47;4.57;;;;;;;;;;5132760;27;20228;-77
2022/12/19 04:30:19;;;;;;;5.87;4.87;;;;;;;;;;5133534;27;20273;-77
2022/12/19 04:32:47;;;;;;;8.10;4.40;;;;;;;;;;5132660;27;20334;-78
2022/12/19 04:35:14;;;;;;;9.00;4.57;;;;;;;;;;5132637;27;20316;-77
2022/12/19 04:37:41;;;;;;;6.33;4.10;;;;;;;;;;5132356;27;20744;-77
2022/12/19 04:40:10;;;;;;;6.77;4.33;;;;;;;;;;5132460;27;20246;-77
2022/12/19 04:42:37;;;;;;;5.67;4.23;;;;;;;;;;5132145;27;20226;-77
2022/12/19 04:45:06;;;;;;;6.80;4.53;;;;;;;;;;5130153;27;20231;-77
2022/12/19 04:47:36;;;;;;;5.97;4.40;;;;;;;;;;5132774;27;20229;-77
2022/12/19 04:50:03;;;;;;;6.10;4.30;;;;;;;;;;5131528;27;20723;-77
2022/12/19 04:52:30;;;;;;;5.97;4.50;;;;;;;;;;5133367;27;20200;-78
2022/12/19 04:55:00;;;;;;;5.93;4.40;;;;;;;;;;5132460;28;20231;-77
2022/12/19 04:57:29;;;;;;;7.13;4.70;;;;;;;;;;5133479;28;20207;-77
2022/12/19 04:59:56;;;;;;;5.53;4.27;;;;;;;;;;5132094;28;20220;-77
2022/12/19 05:02:25;;;;;;;5.40;4.50;;;;;;;;;;5131004;28;20228;-77
2022/12/19 05:04:52;;;;;;;6.57;4.33;;;;;;;;;;5132810;28;20232;-77
2022/12/19 05:07:19;;;;;;;9.47;5.17;;;;;;;;;;5132080;28;20193;-77
2022/12/19 05:09:47;;;;;;;7.67;4.70;;;;;;;;;;5131740;28;20730;-77
2022/12/19 05:12:14;;;;;;;10.20;4.80;;;;;;;;;;5130469;28;20213;-77
2022/12/19 05:14:41;;;;;;;6.70;4.00;;;;;;;;;;5131617;28;20204;-77
2022/12/19 05:17:09;;;;;;;6.70;4.23;;;;;;;;;;5130383;28;20241;-77
2022/12/19 05:19:37;;;;;;;6.00;4.60;;;;;;;;;;5134090;27;20648;-77
2022/12/19 05:22:04;;;;;;;6.33;4.30;;;;;;;;;;5131731;28;20201;-77
2022/12/19 05:24:32;;;;;;;6.97;4.33;;;;;;;;;;5131748;28;20674;-77
2022/12/19 05:26:59;;;;;;;9.47;4.77;;;;;;;;;;5132496;28;20346;-78
2022/12/19 05:29:26;;;;;;;6.93;4.50;;;;;;;;;;5131666;28;20236;-78
2022/12/19 05:31:53;;;;;;;5.53;4.17;;;;;;;;;;5129181;28;20243;-77
2022/12/19 05:34:20;;;;;;;5.20;4.50;;;;;;;;;;5129221;28;20208;-77
2022/12/19 05:36:49;;;;;;;7.03;4.40;;;;;;;;;;5131088;28;20193;-77
2022/12/19 05:39:16;;;;;;;7.27;4.40;;;;;;;;;;5131059;28;20238;-77
2022/12/19 05:41:43;;;;;;;7.47;4.60;;;;;;;;;;5131900;28;20235;-77
2022/12/19 05:44:11;;;;;;;8.00;4.50;;;;;;;;;;5129870;28;20229;-77
2022/12/19 05:46:38;;;;;;;10.30;4.43;;;;;;;;;;5131590;28;20197;-77
2022/12/19 05:49:05;;;;;;;10.50;5.10;;;;;;;;;;5123589;28;20244;-77
2022/12/19 05:51:32;;;;;;;5.90;4.60;;;;;;;;;;5132358;28;20292;-77
2022/12/19 05:54:02;;;;;;;7.97;4.33;;;;;;;;;;5133874;27;20707;-77
2022/12/19 05:56:29;;;;;;;7.17;4.53;;;;;;;;;;5135036;27;20201;-77
2022/12/19 05:58:56;;;;;;;6.70;4.40;;;;;;;;;;5135099;27;20329;-76
2022/12/19 06:01:25;;;;;;;6.20;4.30;;;;;;;;;;5134991;27;20273;-77
2022/12/19 06:03:52;;;;;;;6.67;4.60;;;;;;;;;;5132132;27;20240;-77
2022/12/19 06:06:20;;;;;;;6.73;4.10;;;;;;;;;;5135061;27;20262;-77
2022/12/19 06:08:47;;;;;;;7.67;4.50;;;;;;;;;;5134424;27;20250;-77
2022/12/19 06:11:17;;;;;;;7.37;4.97;;;;;;;;;;5134286;27;20193;-77
2022/12/19 06:13:44;;;;;;;6.40;4.37;;;;;;;;;;5133857;27;20670;-76
2022/12/19 06:16:12;;;;;;;6.73;4.57;;;;;;;;;;5136064;27;20301;-77
2022/12/19 06:18:40;;;;;;;7.63;4.47;;;;;;;;;;5135213;27;20612;-77
2022/12/19 06:21:09;;;;;;;9.47;5.00;;;;;;;;;;5134714;27;20201;-77
2022/12/19 06:23:37;;;;;;;9.23;5.03;;;;;;;;;;5129382;27;20241;-77
2022/12/19 06:26:05;;;;;;;8.03;4.80;;;;;;;;;;5134307;27;20197;-77
2022/12/19 06:28:35;;;;;;;10.80;7.03;;;;;;;;;;5134160;27;20203;-76
2022/12/19 06:31:04;;;;;;;6.90;4.63;;;;;;;;;;5130889;27;20238;-77
2022/12/19 06:33:32;;;;;;;8.17;4.93;;;;;;;;;;5133670;27;20223;-77
2022/12/19 06:35:59;;;;;;;7.53;4.73;;;;;;;;;;5133157;27;20281;-74
2022/12/19 06:38:27;;;;;;;7.90;4.43;;;;;;;;;;5125041;27;20229;-76
2022/12/19 06:43:40;;;;;;;5.70;4.30;;;;;;;;;;5131372;27;20203;-76
2022/12/19 06:46:08;;;;;;;6.00;4.47;;;;;;;;;;5133699;27;20197;-77
2022/12/19 06:48:35;;;;;;;6.90;4.70;;;;;;;;;;5121238;27;20229;-77
2022/12/19 06:51:02;;;;;;;7.07;4.53;;;;;;;;;;5125761;27;20317;-75
2022/12/19 06:53:30;;;;;;;6.37;4.53;;;;;;;;;;5132949;27;20296;-75
2022/12/19 06:55:58;;;;;;;6.73;4.43;;;;;;;;;;5134517;27;20669;-77
2022/12/19 06:58:25;;;;;;;10.77;4.67;;;;;;;;;;5132918;27;20293;-77
2022/12/19 07:00:54;;;;;;;7.30;4.43;;;;;;;;;;5132151;27;20224;-77
2022/12/19 07:03:23;;;;;;;7.07;4.43;;;;;;;;;;5131019;27;20205;-77
2022/12/19 07:05:50;;;;;;;6.63;4.63;;;;;;;;;;5127249;27;20687;-77
2022/12/19 07:08:18;;;;;;;6.37;4.73;;;;;;;;;;5133276;27;20228;-77
2022/12/19 07:10:45;;;;;;;9.20;5.10;;;;;;;;;;5133608;27;20324;-75
2022/12/19 07:13:12;;;;;;;6.87;4.70;;;;;;;;;;5130860;27;20209;-77
2022/12/19 07:15:39;;;;;;;7.97;4.60;;;;;;;;;;5133279;27;20197;-75
2022/12/19 07:18:09;;;;;;;6.70;4.53;;;;;;;;;;5133951;27;20196;-75
2022/12/19 07:20:37;;;;;;;8.77;4.50;;;;;;;;;;5132694;27;20253;-77
2022/12/19 07:23:05;;;;;;;8.27;4.60;;;;;;;;;;5128277;27;20232;-74
2022/12/19 07:25:33;;;;;;;7.50;4.40;;;;;;;;;;5140779;27;20209;-77
2022/12/19 07:28:00;;;;;;;7.97;4.33;;;;;;;;;;5131957;27;20201;-77
2022/12/19 07:30:27;;;;;;;9.20;4.67;;;;;;;;;;5128050;27;20775;-76
2022/12/19 07:32:54;;;;;;;8.30;4.03;;;;;;;;;;5133279;27;20254;-77
2022/12/19 07:35:23;;;;;;;7.90;4.97;;;;;;;;;;5118447;27;20285;-77
2022/12/19 07:37:50;;;;;;;7.00;4.33;;;;;;;;;;5132506;27;20225;-76
2022/12/19 07:40:18;;;;;;;7.93;4.70;;;;;;;;;;5129633;27;20197;-76
2022/12/19 07:42:45;;;;;;;7.60;4.53;;;;;;;;;;5132804;27;20224;-76
2022/12/19 07:45:12;;;;;;;6.40;4.47;;;;;;;;;;5133582;27;20242;-76
2022/12/19 07:47:39;;;;;;;7.10;4.50;;;;;;;;;;5130787;27;20637;-76
2022/12/19 07:50:07;;;;;;;8.53;4.60;;;;;;;;;;5124270;27;20271;-76
2022/12/19 07:52:35;;;;;;;9.43;4.93;;;;;;;;;;5134113;27;20597;-77
2022/12/19 07:55:03;;;;;;;8.13;4.40;;;;;;;;;;5133294;27;20233;-77
2022/12/19 07:57:30;;;;;;;10.53;4.77;;;;;;;;;;5131763;27;20204;-76
2022/12/19 07:59:57;;;;;;;9.27;4.50;;;;;;;;;;5133473;27;20705;-76
2022/12/19 08:02:24;;;;;;;7.77;4.63;;;;;;;;;;5132137;27;20256;-76
2022/12/19 08:04:51;;;;;;;5.97;4.50;;;;;;;;;;5142883;27;20232;-76
2022/12/19 08:07:18;;;;;;;7.43;4.57;;;;;;;;;;5132422;27;20233;-77
2022/12/19 08:09:47;;;;;;;9.27;4.60;;;;;;;;;;5132525;27;20252;-76
2022/12/19 08:12:15;;;;;;;7.97;4.43;;;;;;;;;;5115210;27;20201;-76
2022/12/19 08:14:43;;;;;;;8.83;4.87;;;;;;;;;;5133211;27;20262;-76
2022/12/19 08:17:10;;;;;;;7.57;4.53;;;;;;;;;;5122466;27;20219;-77
2022/12/19 08:19:37;;;;;;;7.27;4.47;;;;;;;;;;5133197;27;20245;-76
2022/12/19 08:22:05;;;;;;;9.90;4.50;;;;;;;;;;5118524;27;20239;-76
2022/12/19 08:24:32;;;;;;;8.17;4.03;;;;;;;;;;5132210;27;20232;-76
2022/12/19 08:27:00;;;;;;;6.93;4.47;;;;;;;;;;5131321;27;20224;-77
2022/12/19 08:29:28;;;;;;;7.90;4.67;;;;;;;;;;5132265;27;20216;-77
2022/12/19 08:31:55;;;;;;;9.87;5.10;;;;;;;;;;5131993;27;20231;-76
2022/12/19 08:34:22;;;;;;;8.57;5.30;;;;;;;;;;5130084;27;20250;-76
2022/12/19 08:36:49;;;;;;;7.97;5.37;;;;;;;;;;5132449;27;20197;-77
2022/12/19 08:39:16;;;;;;;9.33;4.80;;;;;;;;;;5131809;27;20222;-77
2022/12/19 08:41:44;;;;;;;9.60;4.97;;;;;;;;;;5132173;27;20224;-76
2022/12/19 08:44:13;;;;;;;7.63;4.50;;;;;;;;;;5133097;27;20261;-77
2022/12/19 08:46:40;;;;;;;6.73;4.80;;;;;;;;;;5120068;27;20216;-77
2022/12/19 08:49:07;;;;;;;8.13;4.90;;;;;;;;;;5132073;27;20239;-77
2022/12/19 08:51:34;;;;;;;9.83;4.80;;;;;;;;;;5133192;27;20231;-77
2022/12/19 08:54:02;;;;;;;8.37;5.00;;;;;;;;;;5132383;27;20721;-77
2022/12/19 08:56:29;;;;;;;9.77;5.27;;;;;;;;;;5132448;27;20273;-74
2022/12/19 08:58:57;;;;;;;8.93;5.00;;;;;;;;;;5128840;28;20602;-80
2022/12/19 09:01:25;;;;;;;8.33;5.00;;;;;;;;;;5130716;28;20657;-80
2022/12/19 09:03:53;;;;;;;7.93;4.57;;;;;;;;;;5121580;28;20197;-80
2022/12/19 09:06:20;;;;;;;10.47;4.97;;;;;;;;;;5131504;28;20204;-80
2022/12/19 09:08:47;;;;;;;9.13;5.20;;;;;;;;;;5131283;28;20193;-80
2022/12/19 09:11:15;;;;;;;10.90;5.17;;;;;;;;;;5131870;28;20260;-81
2022/12/19 09:13:43;;;;;;;8.60;5.20;;;;;;;;;;5132427;28;20249;-81
2022/12/19 09:16:12;;;;;;;10.90;5.00;;;;;;;;;;5132159;28;20204;-81
2022/12/19 09:18:41;;;;;;;10.97;5.87;;;;;;;;;;5132328;28;20691;-80
2022/12/19 09:21:08;;;;;;;12.97;5.37;;;;;;;;;;5131384;28;20279;-80
2022/12/19 09:23:36;;;;;;;11.17;5.07;;;;;;;;;;5121347;28;20282;-80
2022/12/19 09:26:04;;;;;;;7.53;5.20;;;;;;;;;;5128095;28;20197;-79
2022/12/19 09:28:31;;;;;;;9.83;5.57;;;;;;;;;;5132831;27;20225;-79
2022/12/19 09:30:59;;;;;;;10.70;5.33;;;;;;;;;;5136018;27;20793;-80
2022/12/19 09:33:26;;;;;;;9.63;4.97;;;;;;;;;;5134694;27;20229;-81
2022/12/19 09:35:56;;;;;;;15.13;5.80;;;;;;;;;;5136772;27;20197;-81
2022/12/19 09:38:24;;;;;;;9.23;4.90;;;;;;;;;;5134240;27;20639;-81
2022/12/19 09:40:56;;;;;;;8.83;5.17;;;;;;;;;;5135735;27;20193;-81
2022/12/19 09:43:29;;;;;;;11.77;5.20;;;;;;;;;;5136065;27;20262;-81
2022/12/19 09:45:59;;;;;;;10.03;5.13;;;;;;;;;;5136794;27;20200;-80
2022/12/19 09:48:26;;;;;;;11.53;5.50;;;;;;;;;;5135799;27;20228;-80
2022/12/19 09:50:59;;;;;;;9.90;5.30;;;;;;;;;;5135843;27;20213;-80
2022/12/19 09:53:29;;;;;;;9.17;5.13;;;;;;;;;;5122746;27;20237;-80
2022/12/19 09:55:58;;;;;;;11.73;5.60;;;;;;;;;;5145687;27;20622;-80
2022/12/19 09:58:32;;;;;;;8.57;4.90;;;;;;;;;;5139455;27;20196;-80
2022/12/19 10:01:01;;;;;;;11.50;5.90;;;;;;;;;;5123802;27;20200;-80
2022/12/19 10:03:29;;;;;;;11.97;5.30;;;;;;;;;;5135389;27;20211;-80
2022/12/19 10:06:01;;;;;;;8.30;5.53;;;;;;;;;;5126388;27;20899;-80
2022/12/19 10:08:31;;;;;;;9.83;5.57;;;;;;;;;;5128281;27;20224;-80
2022/12/19 10:11:03;;;;;;;11.53;5.17;;;;;;;;;;5126759;27;20723;-80
2022/12/19 10:13:36;;;;;;;9.63;4.67;;;;;;;;;;5134120;27;20741;-81
2022/12/19 10:16:06;;;;;;;12.57;5.07;;;;;;;;;;5137632;27;20239;-81
2022/12/19 10:18:41;;;;;;;10.53;4.47;;;;;;;;;;5119886;27;20216;-80
2022/12/19 10:21:13;;;;;;;14.17;5.83;;;;;;;;;;5119506;27;20248;-81
2022/12/19 10:24:07;;;;;;;12.43;5.37;;;;;;;;;;5129681;27;20229;-81
2022/12/19 10:26:37;;;;;;;11.30;4.83;;;;;;;;;;5134217;27;20197;-80
2022/12/19 10:29:12;;;;;;;9.50;5.00;;;;;;;;;;5131836;27;20635;-81
2022/12/19 10:31:42;;;;;;;10.43;5.13;;;;;;;;;;5132198;27;20245;-81
2022/12/19 10:34:14;;;;;;;7.87;4.07;;;;;;;;;;5132943;27;20606;-81
2022/12/19 10:36:44;;;;;;;8.20;4.80;;;;;;;;;;5121609;27;20199;-80
2022/12/19 10:39:15;;;;;;;9.00;5.03;;;;;;;;;;5124065;27;20288;-81
2022/12/19 10:41:44;;;;;;;9.60;5.40;;;;;;;;;;5130578;27;20668;-81
2022/12/19 10:44:12;;;;;;;12.07;5.17;;;;;;;;;;5123650;27;20193;-81
2022/12/19 10:46:40;;;;;;;9.07;4.70;;;;;;;;;;5132918;27;20201;-81
2022/12/19 10:49:13;;;;;;;8.93;5.50;;;;;;;;;;5134463;27;20261;-81
2022/12/19 10:51:41;;;;;;;11.70;6.03;;;;;;;;;;5134067;27;20224;-82
2022/12/19 10:54:09;;;;;;;12.60;5.33;;;;;;;;;;5133595;27;20201;-82
2022/12/19 10:56:37;;;;;;;9.70;5.50;;;;;;;;;;5125317;27;20242;-82
2022/12/19 10:59:04;;;;;;;10.03;4.93;;;;;;;;;;5129231;27;20204;-83
2022/12/19 11:01:33;;;;;;;10.87;5.33;;;;;;;;;;5133208;27;20264;-82
2022/12/19 11:04:19;;;;;;;11.73;5.00;;;;;;;;;;5127552;27;20240;-82
2022/12/19 11:06:48;;;;;;;11.07;5.63;;;;;;;;;;5127138;27;20202;-82
2022/12/19 11:09:26;;;;;;;9.57;5.30;;;;;;;;;;5127849;27;20229;-81
2022/12/19 11:12:11;;;;;;;11.53;4.93;;;;;;;;;;5132137;27;20219;-82
2022/12/19 11:14:40;;;;;;;10.57;5.17;;;;;;;;;;5130622;27;20583;-81
2022/12/19 11:17:13;;;;;;;9.60;5.30;;;;;;;;;;5129353;27;20237;-81
2022/12/19 11:19:40;;;;;;;10.17;5.20;;;;;;;;;;5129208;27;20233;-82
2022/12/19 11:22:08;;;;;;;12.17;5.70;;;;;;;;;;5128934;27;20229;-82
2022/12/19 11:24:40;;;;;;;14.23;5.53;;;;;;;;;;5125882;27;21845;-81
2022/12/19 11:27:29;;;;;;;10.93;5.77;;;;;;;;;;5124933;27;20208;-81
2022/12/19 11:29:58;;;;;;;9.97;5.37;;;;;;;;;;5127537;27;20790;-81
2022/12/19 11:32:31;;;;;;;13.00;5.70;;;;;;;;;;5132074;27;20221;-81
2022/12/19 11:35:01;;;;;;;11.37;5.10;;;;;;;;;;5123411;27;20606;-81
2022/12/19 11:37:31;;;;;;;12.37;5.37;;;;;;;;;;5129032;27;20209;-82
2022/12/19 11:40:02;;;;;;;11.30;4.47;;;;;;;;;;5132158;27;20262;-81
2022/12/19 11:42:31;;;;;;;13.43;5.50;;;;;;;;;;5133352;27;20547;-82
2022/12/19 11:45:03;;;;;;;9.90;5.20;;;;;;;;;;5132575;27;20637;-81
2022/12/19 11:47:33;;;;;;;10.70;5.83;;;;;;;;;;5140545;27;20201;-81
2022/12/19 11:50:02;;;;;;;10.57;5.13;;;;;;;;;;5132378;27;20226;-81
2022/12/19 11:52:35;;;;;;;10.43;5.50;;;;;;;;;;5132660;27;20225;-81
2022/12/19 11:55:06;;;;;;;13.03;6.07;;;;;;;;;;5131302;27;20235;-80
2022/12/19 11:57:33;;;;;;;14.30;5.30;;;;;;;;;;5133066;27;20197;-83
2022/12/19 12:00:00;;;;;;;13.27;5.57;;;;;;;;;;5133248;27;20240;-81
2022/12/19 12:02:39;;;;;;;9.93;4.60;;;;;;;;;;5123751;27;20225;-82
2022/12/19 12:05:10;;;;;;;11.93;5.33;;;;;;;;;;5131713;27;20200;-83
2022/12/19 12:07:38;;;;;;;9.70;4.93;;;;;;;;;;5125306;27;20277;-81
2022/12/19 12:10:14;;;;;;;8.63;4.70;;;;;;;;;;5122194;27;20200;-81
2022/12/19 12:12:45;;;;;;;10.50;5.33;;;;;;;;;;5132013;27;20224;-82
2022/12/19 12:15:30;;;;;;;9.90;4.63;;;;;;;;;;5129876;27;20699;-82
2022/12/19 12:18:03;;;;;;;11.00;5.17;;;;;;;;;;5122680;27;20596;-82
2022/12/19 12:20:33;;;;;;;9.03;4.47;;;;;;;;;;5131302;27;20216;-80
2022/12/19 12:23:07;;;;;;;9.70;4.83;;;;;;;;;;5132998;27;20228;-80
2022/12/19 12:25:42;;;;;;;10.10;4.53;;;;;;;;;;5121509;27;20194;-82
2022/12/19 12:28:17;;;;;;;9.87;4.80;;;;;;;;;;5133088;27;20235;-82
2022/12/19 12:30:51;;;;;;;12.60;5.27;;;;;;;;;;5119227;27;20303;-81
2022/12/19 12:33:26;;;;;;;9.87;4.73;;;;;;;;;;5132963;27;20250;-82
2022/12/19 12:35:58;;;;;;;10.47;5.23;;;;;;;;;;5122262;27;20213;-81
2022/12/19 12:38:31;;;;;;;12.20;5.27;;;;;;;;;;5133352;27;20230;-81
2022/12/19 12:41:10;;;;;;;11.17;4.90;;;;;;;;;;5132236;27;20213;-82
2022/12/19 12:43:45;;;;;;;11.87;5.20;;;;;;;;;;5131008;27;20696;-82
2022/12/19 12:46:14;;;;;;;9.47;4.50;;;;;;;;;;5132821;27;20644;-81
2022/12/19 12:48:43;;;;;;;9.87;4.70;;;;;;;;;;5133170;27;20661;-84
2022/12/19 12:51:11;;;;;;;12.60;5.00;;;;;;;;;;5130860;27;20724;-81
2022/12/19 12:53:41;;;;;;;10.43;5.00;;;;;;;;;;5131033;27;20201;-80
2022/12/19 12:56:11;;;;;;;9.90;4.40;;;;;;;;;;5122273;27;20196;-79
2022/12/19 12:58:59;;;;;;;11.63;5.00;;;;;;;;;;5116390;28;20193;-80
2022/12/19 13:01:33;;;;;;;10.67;4.40;;;;;;;;;;5022467;28;20998;-80
2022/12/19 13:04:03;;;;;;;11.60;4.83;;;;;;;;;;5032493;28;20234;-81
2022/12/19 13:06:33;;;;;;;10.70;5.00;;;;;;;;;;5031579;28;20262;-81
2022/12/19 13:09:04;;;;;;;11.90;4.97;;;;;;;;;;5032475;28;20196;-80
2022/12/19 13:14:44;;;;;;;13.07;4.83;;;;;;;;;;5029961;28;20227;-80
2022/12/19 13:17:11;;;;;;;12.90;5.03;;;;;;;;;;5022797;28;20207;-80
2022/12/19 13:19:40;;;;;;;10.57;4.53;;;;;;;;;;5026908;28;20259;-81
2022/12/19 13:22:15;;;;;;;11.43;4.70;;;;;;;;;;5033159;28;20228;-82
2022/12/19 13:24:44;;;;;;;9.07;4.40;;;;;;;;;;5033015;28;20231;-80
2022/12/19 13:27:26;;;;;;;11.73;4.40;;;;;;;;;;5032757;28;20235;-80
2022/12/19 13:29:57;;;;;;;11.13;4.67;;;;;;;;;;5029037;28;20314;-80
2022/12/19 13:32:24;;;;;;;10.60;4.27;;;;;;;;;;5032677;28;20244;-80
2022/12/19 13:34:53;;;;;;;11.33;4.47;;;;;;;;;;5031342;28;20279;-80
2022/12/19 13:37:24;;;;;;;10.40;4.23;;;;;;;;;;5028286;28;20279;-80
2022/12/19 13:40:01;;;;;;;9.07;4.20;;;;;;;;;;5113264;28;20234;-80
2022/12/19 13:45:17;;;;;;;10.63;4.20;;;;;;;;;;5115149;28;20239;-80
2022/12/19 13:47:45;;;;;;;10.43;3.90;;;;;;;;;;5115484;28;20251;-81
2022/12/19 13:50:17;;;;;;;8.43;4.17;;;;;;;;;;5105466;28;20216;-80
2022/12/19 13:52:48;;;;;;;10.30;4.30;;;;;;;;;;5098081;28;20249;-81
2022/12/19 13:55:16;;;;;;;12.20;4.63;;;;;;;;;;5114824;28;20206;-80
2022/12/19 13:57:43;;;;;;;9.40;3.97;;;;;;;;;;5115570;28;20205;-80
2022/12/19 14:00:16;;;;;;;12.03;4.00;;;;;;;;;;5114937;28;20209;-80
2022/12/19 14:02:49;;;;;;;9.80;3.63;;;;;;;;;;5129562;27;20285;-80
2022/12/19 14:05:24;;;;;;;10.50;3.80;;;;;;;;;;5110432;27;20204;-80
2022/12/19 14:07:52;;;;;;;8.87;3.90;;;;;;;;;;5134787;27;20277;-81
2022/12/19 14:10:22;;;;;;;12.53;4.17;;;;;;;;;;5135819;27;20677;-80
2022/12/19 14:15:36;;;;;;;11.07;4.20;;;;;;;;;;5134383;27;20215;-81
2022/12/19 14:18:15;;;;;;;11.83;4.10;;;;;;;;;;5132144;27;20231;-81
2022/12/19 14:20:43;;;;;;;12.60;4.17;;;;;;;;;;5134419;27;20623;-81
2022/12/19 14:23:11;;;;;;;13.60;3.93;;;;;;;;;;5134290;27;20242;-81
2022/12/19 14:25:39;;;;;;;12.97;4.37;;;;;;;;;;5135161;27;20242;-81
2022/12/19 14:28:08;;;;;;;10.83;4.10;;;;;;;;;;5135040;27;20197;-81
2022/12/19 14:30:37;;;;;;;11.77;4.00;;;;;;;;;;5135005;27;20336;-80
2022/12/19 14:33:12;;;;;;;9.30;3.40;;;;;;;;;;5134118;27;20249;-80
2022/12/19 14:35:40;;;;;;;11.77;3.93;;;;;;;;;;5133488;27;20228;-80
2022/12/19 14:38:09;;;;;;;11.57;4.00;;;;;;;;;;5135489;27;20253;-80
2022/12/19 14:40:40;;;;;;;11.00;3.53;;;;;;;;;;5135208;27;20276;-80
2022/12/19 14:45:55;;;;;;;10.50;3.50;;;;;;;;;;5133968;27;20192;-81
2022/12/19 14:48:32;;;;;;;10.97;3.50;;;;;;;;;;5131296;27;20224;-81
2022/12/19 14:51:06;;;;;;;13.47;4.00;;;;;;;;;;5134614;27;20224;-81
2022/12/19 14:53:33;;;;;;;8.63;3.70;;;;;;;;;;5133814;27;20776;-81
2022/12/19 14:56:05;;;;;;;11.17;3.90;;;;;;;;;;5134754;27;20225;-80
2022/12/19 14:58:34;;;;;;;11.47;4.37;;;;;;;;;;5132745;27;20793;-81
2022/12/19 15:01:02;;;;;;;10.33;4.07;;;;;;;;;;5134086;27;20197;-80
2022/12/19 15:03:32;;;;;;;9.07;4.07;;;;;;;;;;5141785;27;20197;-81
2022/12/19 15:06:06;;;;;;;10.83;3.97;;;;;;;;;;5129333;27;20228;-81
2022/12/19 15:08:35;;;;;;;13.00;4.47;;;;;;;;;;5133890;27;20253;-80